KBPI/BPI METAR and TAF weather

Enter ICAO airport designator
Station Type Date Time Source
KBPI METAR 2020/07/02 18:53 UTC NOAA

KBPI 021853Z AUTO 23005KT 10SM CLR 22/02 A3018 RMK AO2 SLP125 T02170017


Station Type Date Time Source
KBPI Decoded METAR 2020/07/02 18:53 UTC NOAA

BIG PINEY-MARBLETON AIRPORT, WY, United States (KBPI) 42-35N 110-06W 2117M
Jul 02, 2020 - 02:53 PM EDT / 2020.07.02 1853 UTC
Wind: from the SW (230 degrees) at 6 MPH (5 KT):0
Visibility: 10 mile(s):0
Sky conditions: clear
Temperature: 71.1 F (21.7 C)
Dew Point: 35.1 F (1.7 C)
Relative Humidity: 26%
Pressure (altimeter): 30.18 in. Hg (1022 hPa)
ob: KBPI 021853Z AUTO 23005KT 10SM CLR 22/02 A3018 RMK AO2 SLP125 T02170017
cycle: 19

Station Type Date Time Source
KBPI TAF 2020/07/02 18:24 UTC NOAA

TAF KBPI 021721Z 0218/0318 22007KT P6SM SCT100
FM022000 25013G20KT P6SM SCT080
FM030100 31007KT P6SM FEW120

Example: see airport list